Time;durP1;ratioP1;P1;durP2;ratioP2;P2;SDS_P1;SDS_P2;PMS_P1;PMS_P2;Temp;Humidity;BMP_temperature;BMP_pressure;BME280_temperature;BME280_humidity;BME280_pressure;Samples;Min_cycle;Max_cycle;Signal;HPM_P1;HPM_P2
2022/04/24 00:02:02;;;;;;;8.77;5.50;;;;;;;11.94;49.54;100175.41;5052940;28;20033;-84
2022/04/24 00:04:27;;;;;;;9.63;5.53;;;;;;;11.89;49.60;100179.03;5052167;28;20044;-85
2022/04/24 00:06:53;;;;;;;10.03;5.50;;;;;;;11.88;49.85;100166.94;5052691;28;20390;-85
2022/04/24 00:09:21;;;;;;;8.27;5.25;;;;;;;11.86;49.62;100171.31;5052504;28;20473;-85
2022/04/24 00:11:47;;;;;;;7.45;4.93;;;;;;;11.83;50.19;100168.81;5052495;28;20033;-85
2022/04/24 00:14:12;;;;;;;7.93;5.20;;;;;;;11.78;50.11;100167.25;5052984;28;20347;-86
2022/04/24 00:16:39;;;;;;;9.80;5.63;;;;;;;11.69;50.32;100165.81;5051681;28;20428;-85
2022/04/24 00:19:05;;;;;;;9.57;5.55;;;;;;;11.67;50.49;100168.44;5052604;28;20389;-86
2022/04/24 00:21:30;;;;;;;8.93;5.63;;;;;;;11.58;50.65;100160.94;5052604;28;20392;-85
2022/04/24 00:23:56;;;;;;;11.27;5.97;;;;;;;11.51;50.85;100164.63;5051453;28;20042;-85
2022/04/24 00:26:21;;;;;;;9.93;5.63;;;;;;;11.46;51.15;100162.16;5052232;28;20052;-85
2022/04/24 00:28:46;;;;;;;10.00;5.97;;;;;;;11.39;51.46;100160.63;5052101;28;20493;-85
2022/04/24 00:31:12;;;;;;;10.27;5.80;;;;;;;11.35;51.50;100148.66;5051984;28;20032;-85
2022/04/24 00:33:37;;;;;;;10.27;6.33;;;;;;;11.33;51.36;100155.63;5051947;28;20032;-85
2022/04/24 00:36:02;;;;;;;9.87;5.50;;;;;;;11.28;51.93;100158.34;5052426;28;20033;-86
2022/04/24 00:38:27;;;;;;;12.80;5.43;;;;;;;11.28;52.24;100160.97;5051796;28;20028;-85
2022/04/24 00:40:54;;;;;;;9.60;6.00;;;;;;;11.19;51.85;100154.28;5051979;28;20075;-85
2022/04/24 00:43:19;;;;;;;8.27;5.65;;;;;;;11.18;52.21;100156.94;5051955;28;20029;-85
2022/04/24 00:45:45;;;;;;;10.13;6.13;;;;;;;11.08;52.17;100153.72;5051599;28;20029;-86
2022/04/24 00:48:11;;;;;;;9.53;5.97;;;;;;;11.06;52.34;100158.09;5052620;28;20577;-84
2022/04/24 00:50:38;;;;;;;9.63;6.03;;;;;;;11.03;52.75;100147.84;5052468;28;20527;-85
2022/04/24 00:53:04;;;;;;;11.02;6.28;;;;;;;10.98;52.65;100150.53;5051575;28;20031;-85
2022/04/24 00:55:30;;;;;;;9.77;5.67;;;;;;;10.98;52.65;100153.13;5052290;28;20017;-86
2022/04/24 00:57:56;;;;;;;8.57;5.32;;;;;;;10.93;52.75;100142.88;5052196;28;20097;-85
2022/04/24 01:00:21;;;;;;;7.97;5.40;;;;;;;10.92;53.35;100145.53;5051194;28;20449;-85
2022/04/24 01:02:46;;;;;;;8.53;5.43;;;;;;;10.89;52.87;100146.47;5050757;28;20025;-86
2022/04/24 01:05:12;;;;;;;8.90;6.00;;;;;;;10.82;53.37;100150.97;5052312;28;20488;-85
2022/04/24 01:07:37;;;;;;;10.57;6.20;;;;;;;10.78;53.35;100154.53;5051344;28;20370;-83
2022/04/24 01:10:03;;;;;;;10.10;6.20;;;;;;;10.80;53.52;100144.13;5052175;28;20388;-85
2022/04/24 01:12:28;;;;;;;11.23;6.77;;;;;;;10.76;53.62;100147.69;5051452;28;20025;-85
2022/04/24 01:14:53;;;;;;;9.67;5.73;;;;;;;10.77;53.43;100152.00;5051784;28;20029;-83
2022/04/24 01:17:19;;;;;;;9.50;6.03;;;;;;;10.75;53.59;100146.00;5052404;28;20017;-85
2022/04/24 01:19:44;;;;;;;9.43;6.30;;;;;;;10.69;53.55;100151.34;5054383;28;20029;-85
2022/04/24 01:22:09;;;;;;;10.30;5.93;;;;;;;10.71;53.83;100146.94;5055784;28;20116;-85
2022/04/24 01:24:35;;;;;;;9.90;6.23;;;;;;;10.68;53.61;100153.09;5055091;28;20037;-84
2022/04/24 01:27:00;;;;;;;11.37;6.50;;;;;;;10.66;53.87;100149.69;5054799;28;20033;-84
2022/04/24 01:29:25;;;;;;;9.33;5.63;;;;;;;10.70;54.02;100155.63;5055764;28;20057;-84
2022/04/24 01:31:51;;;;;;;9.30;5.67;;;;;;;10.66;53.71;100152.28;5054875;28;20120;-85
2022/04/24 01:34:20;;;;;;;11.40;6.73;;;;;;;10.64;53.93;100154.06;5054945;28;20032;-85
2022/04/24 01:36:46;;;;;;;8.98;5.90;;;;;;;10.65;53.80;100158.34;5055150;28;20035;-85
2022/04/24 01:39:12;;;;;;;11.60;6.20;;;;;;;10.62;53.94;100161.03;5055396;28;20025;-85
2022/04/24 01:41:37;;;;;;;11.33;6.43;;;;;;;10.61;54.02;100154.16;5054774;28;20017;-86
2022/04/24 01:44:02;;;;;;;8.63;5.77;;;;;;;10.58;53.97;100159.41;5055528;28;20021;-84
2022/04/24 01:46:28;;;;;;;10.83;6.20;;;;;;;10.54;53.91;100143.09;5055493;28;20044;-85
2022/04/24 01:48:53;;;;;;;10.07;6.40;;;;;;;10.54;54.25;100160.38;5054081;28;20384;-85
2022/04/24 01:51:19;;;;;;;10.37;5.97;;;;;;;10.52;54.34;100150.06;5055072;28;20029;-85
2022/04/24 01:53:44;;;;;;;11.53;6.53;;;;;;;10.47;54.17;100152.75;5054712;28;20025;-85
2022/04/24 01:56:11;;;;;;;10.73;6.23;;;;;;;10.47;54.36;100149.34;5054340;28;20029;-85
2022/04/24 01:58:37;;;;;;;8.68;5.30;;;;;;;10.45;54.79;100149.34;5053863;28;20108;-85
2022/04/24 02:01:03;;;;;;;7.83;5.00;;;;;;;10.43;55.06;100156.31;5054285;28;20104;-86
2022/04/24 02:03:31;;;;;;;8.00;4.87;;;;;;;10.40;54.97;100151.22;5054435;28;20048;-86
2022/04/24 02:05:56;;;;;;;7.88;5.00;;;;;;;10.38;54.98;100152.13;5053960;28;20100;-86
2022/04/24 02:08:22;;;;;;;10.73;6.00;;;;;;;10.28;54.98;100148.91;5054869;28;20032;-86
2022/04/24 02:10:51;;;;;;;9.27;6.00;;;;;;;10.27;54.91;100150.63;5053833;28;20453;-86
2022/04/24 02:13:19;;;;;;;10.90;6.53;;;;;;;10.22;55.33;100154.25;5054184;28;20362;-86
2022/04/24 02:15:45;;;;;;;10.02;6.00;;;;;;;10.19;55.82;100152.59;5054319;28;20143;-85
2022/04/24 02:18:11;;;;;;;10.95;6.25;;;;;;;10.12;55.53;100151.03;5054700;28;20025;-86
2022/04/24 02:20:39;;;;;;;13.37;7.30;;;;;;;10.11;55.66;100151.94;5054726;28;20023;-86
2022/04/24 02:23:08;;;;;;;11.05;6.75;;;;;;;10.10;55.27;100151.06;5054768;28;20017;-85
2022/04/24 02:25:33;;;;;;;9.73;6.00;;;;;;;10.10;55.88;100152.81;5034963;28;20061;-86
2022/04/24 02:27:59;;;;;;;11.80;7.17;;;;;;;10.06;55.97;100159.81;5034982;28;20025;-86
2022/04/24 02:30:27;;;;;;;10.67;6.67;;;;;;;10.05;56.03;100152.94;5034151;28;20526;-86
2022/04/24 02:32:56;;;;;;;10.80;6.60;;;;;;;10.05;55.88;100152.94;5034475;28;20589;-85
2022/04/24 02:35:21;;;;;;;12.70;7.28;;;;;;;10.01;56.00;100153.88;5034564;28;20025;-84
2022/04/24 02:37:46;;;;;;;13.27;7.60;;;;;;;9.96;56.21;100156.59;5033582;28;20553;-84
2022/04/24 02:40:12;;;;;;;12.27;7.33;;;;;;;9.94;56.39;100149.75;5039704;28;20074;-84
2022/04/24 02:42:38;;;;;;;11.80;7.43;;;;;;;9.94;55.99;100152.34;5053941;28;20428;-86
2022/04/24 02:45:05;;;;;;;12.55;7.20;;;;;;;9.95;56.50;100157.47;5053484;28;20052;-85
2022/04/24 02:47:30;;;;;;;12.27;7.00;;;;;;;9.92;56.88;100156.69;5054647;28;20025;-86
2022/04/24 02:49:55;;;;;;;12.10;7.20;;;;;;;9.89;56.19;100153.28;5054080;28;20036;-85
2022/04/24 02:52:24;;;;;;;13.30;7.67;;;;;;;9.88;56.83;100153.34;5053305;28;20059;-85
2022/04/24 02:54:49;;;;;;;13.23;7.65;;;;;;;9.88;56.54;100161.94;5053499;28;20545;-86
2022/04/24 02:57:14;;;;;;;14.20;8.23;;;;;;;9.83;56.82;100155.16;5053698;28;20056;-84
2022/04/24 02:59:44;;;;;;;14.57;8.00;;;;;;;9.84;56.81;100162.91;5052893;28;20018;-84
2022/04/24 03:02:10;;;;;;;13.13;7.60;;;;;;;9.84;56.92;100160.34;5054169;28;20028;-86
2022/04/24 03:04:35;;;;;;;12.50;7.57;;;;;;;9.82;57.11;100172.47;5054028;28;20111;-85
2022/04/24 03:07:00;;;;;;;13.73;8.10;;;;;;;9.78;57.13;100159.63;5052999;28;20481;-85
2022/04/24 03:09:26;;;;;;;15.93;9.03;;;;;;;9.68;57.51;100164.97;5053998;28;20504;-83
2022/04/24 03:11:51;;;;;;;15.17;8.67;;;;;;;9.61;58.00;100163.44;5053687;28;20504;-83
2022/04/24 03:14:16;;;;;;;13.53;7.60;;;;;;;9.62;57.92;100162.53;5053032;28;20036;-86
2022/04/24 03:16:41;;;;;;;15.83;8.87;;;;;;;9.53;57.92;100173.94;5053530;28;20024;-85
2022/04/24 03:19:07;;;;;;;13.97;7.93;;;;;;;9.51;58.44;100170.56;5052907;28;20159;-85
2022/04/24 03:21:32;;;;;;;15.20;8.37;;;;;;;9.47;58.19;100166.31;5053217;28;20036;-85
2022/04/24 03:23:57;;;;;;;14.97;8.30;;;;;;;9.41;58.46;100171.63;5053094;28;20037;-86
2022/04/24 03:26:28;;;;;;;12.70;7.80;;;;;;;9.40;58.46;100169.94;5034374;28;20872;-84
2022/04/24 03:28:54;;;;;;;16.73;9.23;;;;;;;9.29;59.12;100170.16;5052164;28;20041;-85
2022/04/24 03:31:19;;;;;;;13.60;7.83;;;;;;;9.30;58.94;100168.41;5053353;28;20025;-85
2022/04/24 03:33:44;;;;;;;15.57;8.57;;;;;;;9.24;59.24;100169.38;5052309;28;20029;-85
2022/04/24 03:36:09;;;;;;;12.87;7.77;;;;;;;9.23;59.51;100172.88;5053430;28;20027;-85
2022/04/24 03:38:35;;;;;;;16.47;8.60;;;;;;;9.18;59.58;100170.34;5053384;28;20021;-85
2022/04/24 03:41:03;;;;;;;14.20;8.13;;;;;;;9.15;59.76;100167.84;5051975;28;20500;-86
2022/04/24 03:43:28;;;;;;;13.10;7.95;;;;;;;9.15;59.74;100179.94;5053464;28;20442;-86
2022/04/24 03:45:53;;;;;;;11.30;6.93;;;;;;;9.14;59.70;100173.91;5052398;28;20115;-86
2022/04/24 03:48:19;;;;;;;14.07;8.10;;;;;;;9.06;60.70;100160.28;5052369;28;20382;-86
2022/04/24 03:50:44;;;;;;;13.87;8.23;;;;;;;8.98;60.81;100173.38;5051872;28;20037;-86
2022/04/24 03:53:10;;;;;;;14.27;8.57;;;;;;;8.95;60.80;100163.06;5053139;28;20075;-86
2022/04/24 03:55:35;;;;;;;14.40;8.30;;;;;;;8.94;60.58;100159.63;5052224;28;20021;-86
2022/04/24 03:58:00;;;;;;;15.77;9.13;;;;;;;8.86;61.17;100173.59;5052760;28;20116;-86
2022/04/24 04:00:26;;;;;;;16.40;9.13;;;;;;;8.79;61.67;100165.09;5052947;28;20469;-85
2022/04/24 04:02:52;;;;;;;14.63;8.20;;;;;;;8.79;61.65;100157.34;5052017;28;20023;-86
2022/04/24 04:05:17;;;;;;;14.33;8.40;;;;;;;8.78;61.81;100174.56;5052962;28;20029;-86
2022/04/24 04:07:43;;;;;;;15.27;8.53;;;;;;;8.77;61.97;100167.72;5052749;28;20085;-85
2022/04/24 04:10:11;;;;;;;16.10;8.90;;;;;;;8.69;62.58;100169.56;5052620;28;20086;-86
2022/04/24 04:12:36;;;;;;;14.88;7.88;;;;;;;8.67;62.65;100166.16;5052933;28;20025;-85
2022/04/24 04:15:06;;;;;;;15.00;7.83;;;;;;;8.67;62.52;100175.66;5052412;28;20392;-85
2022/04/24 04:17:32;;;;;;;16.60;9.10;;;;;;;8.62;62.43;100165.41;5051854;28;20156;-85
2022/04/24 04:19:57;;;;;;;13.63;7.63;;;;;;;8.63;63.08;100173.13;5052365;28;20083;-85
2022/04/24 04:22:23;;;;;;;13.10;7.70;;;;;;;8.62;63.36;100170.59;5052137;28;20490;-84
2022/04/24 04:24:48;;;;;;;12.70;7.70;;;;;;;8.61;63.25;100169.72;5052188;28;20114;-86
2022/04/24 04:27:13;;;;;;;16.60;8.93;;;;;;;8.56;63.44;100181.03;5052875;28;20143;-82
2022/04/24 04:29:39;;;;;;;15.27;8.57;;;;;;;8.56;63.10;100175.84;5051571;28;20508;-85
2022/04/24 04:32:04;;;;;;;14.60;8.67;;;;;;;8.49;64.03;100168.22;5052616;28;20032;-84
2022/04/24 04:34:29;;;;;;;14.67;8.47;;;;;;;8.50;63.86;100174.22;5052757;28;20036;-85
2022/04/24 04:36:55;;;;;;;16.57;8.17;;;;;;;8.47;64.23;100177.72;5051616;28;20029;-85
2022/04/24 04:39:20;;;;;;;16.63;8.82;;;;;;;8.43;64.31;100182.94;5052712;28;20079;-85
2022/04/24 04:41:46;;;;;;;17.10;9.00;;;;;;;8.41;64.90;100189.88;5073024;22;20052;-85
2022/04/24 04:44:11;;;;;;;15.93;8.30;;;;;;;8.41;64.65;100189.88;5071106;28;20028;-85
2022/04/24 04:46:37;;;;;;;13.18;7.65;;;;;;;8.42;64.81;100189.88;5072042;28;20281;-84
2022/04/24 04:49:03;;;;;;;14.10;7.87;;;;;;;8.41;64.90;100197.63;5073061;28;20089;-86
2022/04/24 04:51:29;;;;;;;15.45;8.57;;;;;;;8.36;64.94;100192.53;5072223;28;20271;-86
2022/04/24 04:53:55;;;;;;;14.88;8.07;;;;;;;8.38;64.83;100192.53;5304408;22;20007;-86
2022/04/24 04:56:21;;;;;;;12.88;7.25;;;;;;;8.40;64.13;100198.50;5096307;28;20437;-86
2022/04/24 04:58:46;;;;;;;15.23;8.15;;;;;;;8.38;65.21;100195.13;5095827;28;20032;-85
2022/04/24 05:01:12;;;;;;;15.67;8.67;;;;;;;8.34;64.82;100189.97;5096457;28;20034;-85
2022/04/24 05:03:37;;;;;;;15.47;8.47;;;;;;;8.38;65.07;100202.88;5096269;28;20035;-85
2022/04/24 05:06:02;;;;;;;13.30;7.60;;;;;;;8.39;65.07;100202.00;5095556;28;20027;-85
2022/04/24 05:08:28;;;;;;;14.63;7.97;;;;;;;8.40;64.81;100201.97;5096104;28;20040;-85
2022/04/24 05:10:53;;;;;;;15.50;8.88;;;;;;;8.36;64.92;100210.63;5096287;28;20040;-85
2022/04/24 05:13:19;;;;;;;14.70;8.45;;;;;;;8.35;65.17;100214.09;5095764;28;20034;-86
2022/04/24 05:15:44;;;;;;;15.37;8.47;;;;;;;8.39;65.25;100214.94;5096179;28;20031;-85
2022/04/24 05:18:09;;;;;;;13.93;8.03;;;;;;;8.38;64.96;100214.06;5095984;28;20031;-85
2022/04/24 05:20:35;;;;;;;13.93;7.40;;;;;;;8.45;64.77;100226.00;5095204;28;20381;-83
2022/04/24 05:23:07;;;;;;;16.03;8.67;;;;;;;8.44;64.88;100228.63;5095858;28;20085;-85
2022/04/24 05:25:33;;;;;;;14.02;7.70;;;;;;;8.46;64.97;100227.69;5096182;28;20425;-85
2022/04/24 05:28:00;;;;;;;15.13;8.25;;;;;;;8.47;65.11;100232.03;5095258;28;20106;-86
2022/04/24 05:30:27;;;;;;;;;;;;;;;8.44;64.98;100232.06;5096168;28;20016;-83
2022/04/24 05:32:52;;;;;;;16.17;8.02;;;;;;;8.49;64.95;100226.84;5095056;28;19912;-84
2022/04/24 05:35:17;;;;;;;15.17;7.97;;;;;;;8.54;64.84;100234.53;5095986;28;20020;-85
2022/04/24 05:37:47;;;;;;;13.85;7.78;;;;;;;8.52;64.46;100231.94;5095927;28;20486;-85
2022/04/24 05:40:12;;;;;;;13.20;7.35;;;;;;;8.59;64.71;100243.06;5094680;28;20032;-85
2022/04/24 05:42:45;;;;;;;16.47;8.13;;;;;;;8.62;64.74;100243.00;5095293;28;20398;-85
2022/04/24 05:45:14;;;;;;;14.77;8.02;;;;;;;8.62;64.40;100243.00;5095652;28;20042;-85
2022/04/24 05:47:40;;;;;;;13.68;7.60;;;;;;;8.67;64.62;100240.34;5094937;28;20073;-85
2022/04/24 05:50:05;;;;;;;16.03;8.47;;;;;;;8.66;64.00;100239.50;5095604;28;20028;-86
2022/04/24 05:52:30;;;;;;;15.27;7.63;;;;;;;8.69;64.41;100238.59;5095682;28;20043;-85
2022/04/24 05:54:57;;;;;;;13.63;7.63;;;;;;;8.73;63.64;100245.41;5093957;28;20044;-85
2022/04/24 05:57:22;;;;;;;13.55;7.57;;;;;;;8.75;63.69;100241.06;5095427;28;20460;-84
2022/04/24 05:59:48;;;;;;;15.83;8.40;;;;;;;8.78;63.74;100244.44;5095253;28;20042;-84
2022/04/24 06:02:13;;;;;;;15.40;7.87;;;;;;;8.77;63.44;100250.53;5094531;28;20028;-83
2022/04/24 06:04:38;;;;;;;18.13;8.27;;;;;;;8.79;63.11;100259.09;5094057;28;20032;-82
2022/04/24 06:07:04;;;;;;;14.67;7.93;;;;;;;8.83;63.21;100251.28;5095337;28;20384;-84
2022/04/24 06:09:29;;;;;;;15.20;8.10;;;;;;;8.88;63.31;100244.31;5094409;28;20030;-84
2022/04/24 06:11:58;;;;;;;13.63;7.35;;;;;;;8.94;63.25;100250.22;5095080;28;20099;-84
2022/04/24 06:14:24;;;;;;;13.43;7.53;;;;;;;9.00;62.97;100254.44;5094584;28;20055;-84
2022/04/24 06:16:49;;;;;;;13.15;7.25;;;;;;;9.06;63.13;100253.47;5094178;28;20032;-85
2022/04/24 06:19:14;;;;;;;13.67;6.97;;;;;;;9.11;62.70;100264.56;5095103;28;20020;-84
2022/04/24 06:21:40;;;;;;;15.00;7.78;;;;;;;9.09;61.51;100272.38;5094770;28;20496;-83
2022/04/24 06:24:05;;;;;;;14.27;7.80;;;;;;;9.14;62.44;100250.72;5094323;28;20027;-85
2022/04/24 06:26:31;;;;;;;13.80;7.63;;;;;;;9.17;62.14;100256.72;5094773;28;20020;-85
2022/04/24 06:28:56;;;;;;;12.47;7.43;;;;;;;9.23;61.51;100260.91;5094149;28;20036;-82
2022/04/24 06:31:21;;;;;;;14.83;8.00;;;;;;;9.30;61.53;100254.72;5094649;28;20088;-86
2022/04/24 06:33:49;;;;;;;14.27;7.53;;;;;;;9.34;61.43;100261.56;5094826;28;20028;-84
2022/04/24 06:36:15;;;;;;;12.93;7.25;;;;;;;9.36;60.67;100264.13;5094279;28;20123;-82
2022/04/24 06:38:40;;;;;;;14.47;7.70;;;;;;;9.43;61.10;100261.38;5093815;28;20174;-84
2022/04/24 06:41:05;;;;;;;14.70;7.80;;;;;;;9.50;60.78;100262.09;5094611;28;20016;-84
2022/04/24 06:43:30;;;;;;;14.80;8.00;;;;;;;9.53;59.95;100263.78;5093356;28;20104;-84
2022/04/24 06:45:56;;;;;;;13.40;7.88;;;;;;;9.57;60.06;100265.41;5094339;28;20034;-84
2022/04/24 06:48:21;;;;;;;14.33;7.83;;;;;;;9.64;59.59;100277.38;5094530;28;20036;-81
2022/04/24 06:50:47;;;;;;;14.60;7.60;;;;;;;9.70;59.67;100274.63;5093424;28;20024;-85
2022/04/24 06:53:14;;;;;;;15.43;8.53;;;;;;;9.78;59.48;100273.63;5094272;28;20464;-84
2022/04/24 06:55:41;;;;;;;14.30;7.80;;;;;;;9.92;59.15;100275.94;5093900;28;20047;-86
2022/04/24 06:58:08;;;;;;;13.93;8.05;;;;;;;10.97;56.94;100263.94;5093943;28;20052;-86
2022/04/24 07:00:37;;;;;;;12.52;7.30;;;;;;;13.19;51.38;100269.34;5094482;28;20028;-85
2022/04/24 07:03:09;;;;;;;13.52;7.80;;;;;;;15.26;46.67;100269.09;5094510;28;20095;-85
2022/04/24 07:05:35;;;;;;;14.27;7.45;;;;;;;15.88;44.51;100261.09;5093151;28;20549;-86
2022/04/24 07:08:01;;;;;;;13.07;7.30;;;;;;;15.93;42.51;100265.28;5093333;28;20028;-83
2022/04/24 07:10:47;;;;;;;11.80;6.95;;;;;;;15.91;41.62;100267.97;5093729;28;20502;-84
2022/04/24 07:13:12;;;;;;;11.35;6.90;;;;;;;16.34;43.07;100270.28;5072241;28;20058;-85
2022/04/24 07:15:39;;;;;;;11.77;7.10;;;;;;;16.01;41.81;100271.00;5072725;28;20085;-83
2022/04/24 07:18:05;;;;;;;12.75;7.28;;;;;;;14.10;45.08;100278.22;5073933;28;20028;-83
2022/04/24 07:20:33;;;;;;;12.90;6.90;;;;;;;13.31;47.98;100274.13;5072930;28;20047;-85
2022/04/24 07:23:05;;;;;;;13.20;7.22;;;;;;;12.44;49.97;100291.84;5052404;28;20032;-84
2022/04/24 07:25:39;;;;;;;13.07;6.88;;;;;;;12.20;51.00;100284.75;5072907;28;20021;-86
2022/04/24 07:28:05;;;;;;;12.35;7.18;;;;;;;11.93;52.08;100288.16;5073600;28;20024;-86
2022/04/24 07:30:30;;;;;;;11.47;6.80;;;;;;;11.90;52.20;100281.28;5073480;28;20025;-89
2022/04/24 07:32:57;;;;;;;11.23;6.70;;;;;;;11.96;53.03;100282.84;5072721;28;20028;-88
2022/04/24 07:35:25;;;;;;;13.25;7.60;;;;;;;11.93;52.73;100285.56;5091112;28;20024;-89
2022/04/24 07:37:51;;;;;;;11.48;6.93;;;;;;;11.97;52.74;100280.22;5093259;28;20028;-86
2022/04/24 07:40:19;;;;;;;15.27;7.45;;;;;;;12.00;52.75;100276.69;5092603;28;20024;-86
2022/04/24 07:42:57;;;;;;;12.65;6.78;;;;;;;12.12;53.00;100291.06;5092956;28;20094;-87
2022/04/24 07:45:27;;;;;;;12.77;7.90;;;;;;;11.79;51.53;100292.00;5093303;28;20043;-87
2022/04/24 07:47:54;;;;;;;13.52;7.50;;;;;;;11.78;52.44;100295.50;5092132;28;20020;-85
2022/04/24 07:50:21;;;;;;;12.05;7.22;;;;;;;11.80;52.68;100291.13;5092585;28;20016;-86
2022/04/24 07:52:48;;;;;;;13.60;7.68;;;;;;;11.88;52.78;100289.13;5091673;28;20028;-89
2022/04/24 07:55:17;;;;;;;15.25;8.15;;;;;;;11.91;52.03;100290.78;5092175;28;20039;-86
2022/04/24 07:57:43;;;;;;;13.57;7.50;;;;;;;12.00;52.16;100292.31;5090427;28;20024;-87
2022/04/24 08:00:12;;;;;;;15.40;8.30;;;;;;;11.89;51.90;100287.38;5084916;28;20115;-88
2022/04/24 08:02:45;;;;;;;13.00;7.43;;;;;;;12.07;52.72;100301.63;5092244;28;20122;-87
2022/04/24 08:05:10;;;;;;;13.10;7.72;;;;;;;12.16;51.02;100295.28;5093381;28;20028;-83
2022/04/24 08:07:36;;;;;;;14.73;8.27;;;;;;;12.20;51.20;100300.34;5089548;28;20032;-87
2022/04/24 08:10:01;;;;;;;14.23;8.23;;;;;;;12.30;51.34;100300.06;5100375;28;20019;-87
2022/04/24 08:12:26;;;;;;;13.10;7.70;;;;;;;12.36;50.71;100311.13;5100678;28;20046;-86
2022/04/24 08:14:51;;;;;;;13.23;7.80;;;;;;;12.46;51.24;100297.81;5099012;28;20019;-88
2022/04/24 08:17:17;;;;;;;13.37;7.40;;;;;;;12.59;51.22;100300.91;5105659;28;20106;-87
2022/04/24 08:19:43;;;;;;;13.73;7.80;;;;;;;12.64;49.30;100296.38;5077267;28;20075;-84
2022/04/24 08:22:09;;;;;;;14.27;7.80;;;;;;;12.76;50.01;100302.94;5071656;28;20238;-84
2022/04/24 08:24:34;;;;;;;14.70;8.30;;;;;;;12.80;49.56;100307.13;5072586;28;20537;-85
2022/04/24 08:26:59;;;;;;;14.97;8.57;;;;;;;12.87;49.33;100306.06;5089388;28;20020;-84
2022/04/24 08:29:25;;;;;;;15.40;8.50;;;;;;;12.95;48.78;100304.03;5089728;28;20523;-84
2022/04/24 08:31:50;;;;;;;14.30;8.63;;;;;;;13.12;48.56;100297.38;5087705;28;20404;-84
2022/04/24 08:34:15;;;;;;;16.03;8.70;;;;;;;13.18;47.89;100306.72;5097389;28;20039;-82
2022/04/24 08:36:40;;;;;;;15.00;8.10;;;;;;;13.26;48.85;100296.91;5096785;28;20440;-84
2022/04/24 08:39:06;;;;;;;15.77;8.13;;;;;;;13.48;48.91;100301.41;5099104;28;20104;-85
2022/04/24 08:41:43;;;;;;;14.83;7.87;;;;;;;13.58;47.84;100305.38;5098445;28;20042;-84
2022/04/24 08:44:09;;;;;;;15.02;8.20;;;;;;;13.72;47.80;100297.91;5097829;28;20082;-82
2022/04/24 08:46:34;;;;;;;14.03;7.90;;;;;;;13.86;48.04;100299.97;5103029;28;20024;-85
2022/04/24 08:49:02;;;;;;;12.63;7.20;;;;;;;14.11;47.61;100311.22;5119398;28;20054;-84
2022/04/24 08:51:27;;;;;;;14.73;8.20;;;;;;;14.22;46.24;100309.06;5118853;28;20035;-84
2022/04/24 08:53:55;;;;;;;13.60;7.97;;;;;;;14.32;47.35;100306.94;5118791;28;20080;-84
2022/04/24 08:56:20;;;;;;;14.38;8.30;;;;;;;14.35;46.31;100305.06;5119555;28;20034;-86
2022/04/24 08:58:45;;;;;;;14.47;8.47;;;;;;;14.47;46.63;100302.88;5118275;28;20375;-86
2022/04/24 09:01:11;;;;;;;14.03;7.80;;;;;;;14.59;46.26;100306.72;5119702;28;20367;-82
2022/04/24 09:03:37;;;;;;;14.00;8.00;;;;;;;14.68;45.54;100306.41;5119749;28;20378;-88
2022/04/24 09:06:02;;;;;;;15.65;9.02;;;;;;;14.42;45.09;100312.63;5111000;28;20541;-87
2022/04/24 09:08:30;;;;;;;16.40;8.97;;;;;;;14.43;45.03;100314.31;5099312;28;20083;-86
2022/04/24 09:16:37;;;;;;;16.40;8.68;;;;;;;14.71;44.49;100315.88;5059177;28;20048;-85
2022/04/24 09:19:16;;;;;;;16.73;9.00;;;;;;;14.79;44.65;100317.25;5058462;28;20036;-87
2022/04/24 09:21:53;;;;;;;15.73;8.23;;;;;;;15.03;44.61;100311.91;5058023;28;20017;-85
2022/04/24 09:24:18;;;;;;;16.25;8.88;;;;;;;14.94;44.05;100302.69;5058816;28;20035;-85
2022/04/24 09:26:54;;;;;;;14.60;8.87;;;;;;;15.00;44.43;100305.94;5058344;28;20108;-87
2022/04/24 09:29:21;;;;;;;14.55;7.90;;;;;;;15.09;44.71;100297.72;5058596;28;20025;-88
2022/04/24 09:31:51;;;;;;;12.90;7.88;;;;;;;15.39;44.47;100318.25;5058251;28;20465;-84
2022/04/24 09:34:18;;;;;;;15.75;8.88;;;;;;;15.38;43.15;100312.13;5057871;28;20025;-86
2022/04/24 09:40:00;;;;;;;16.48;9.15;;;;;;;15.52;41.94;100323.75;5054302;28;20087;-85
2022/04/24 09:49:02;;;;;;;16.10;8.65;;;;;;;15.80;41.96;100312.91;5078116;22;20502;-88
2022/04/24 09:51:28;;;;;;;14.63;8.53;;;;;;;15.71;41.90;100311.56;5095765;28;20055;-87
2022/04/24 09:56:46;;;;;;;15.57;8.73;;;;;;;15.79;42.04;100316.44;5094242;22;20067;-85
2022/04/24 09:59:13;;;;;;;14.70;8.68;;;;;;;15.93;42.72;100310.59;5056737;28;20040;-84
2022/04/24 10:01:38;;;;;;;16.48;9.50;;;;;;;15.67;41.71;100317.00;5074021;28;20067;-85
2022/04/24 10:07:39;;;;;;;16.25;9.20;;;;;;;15.79;42.27;100311.22;5073937;22;20064;-85
2022/04/24 10:10:06;;;;;;;14.73;7.72;;;;;;;16.03;43.74;100314.50;5055144;28;20036;-88
2022/04/24 10:12:48;;;;;;;16.63;9.55;;;;;;;16.00;41.83;100312.03;5038011;28;20049;-88
2022/04/24 10:15:46;;;;;;;11.57;7.40;;;;;;;16.38;41.55;100326.84;5053976;28;20495;-85
2022/04/24 10:18:36;;;;;;;14.65;8.60;;;;;;;16.43;41.36;100317.00;5054662;28;20120;-88
2022/04/24 10:21:30;;;;;;;16.48;9.25;;;;;;;16.41;40.00;100323.22;5054013;28;20029;-85
2022/04/24 10:24:07;;;;;;;14.07;8.57;;;;;;;16.47;41.19;100325.56;5053922;28;20439;-88
2022/04/24 10:26:32;;;;;;;16.05;8.65;;;;;;;16.37;39.70;100312.06;5054607;28;20472;-85
2022/04/24 10:29:15;;;;;;;15.60;8.90;;;;;;;16.55;40.65;100319.97;5053968;28;20036;-87
2022/04/24 10:31:43;;;;;;;14.27;7.88;;;;;;;16.73;40.75;100321.66;5051665;28;20055;-86
2022/04/24 10:34:11;;;;;;;15.73;8.93;;;;;;;16.57;39.07;100331.19;5054420;28;20032;-87
2022/04/24 10:36:36;;;;;;;13.45;7.45;;;;;;;16.77;38.88;100319.75;5053719;28;20445;-89
2022/04/24 10:39:14;;;;;;;12.03;7.00;;;;;;;17.07;40.04;100313.91;5054664;28;20060;-86
2022/04/24 10:41:56;;;;;;;12.77;7.20;;;;;;;17.19;37.87;100309.81;5054378;28;20032;-84
2022/04/24 10:44:22;;;;;;;14.10;8.30;;;;;;;16.77;38.09;100327.59;5053711;28;20028;-84
2022/04/24 10:46:48;;;;;;;14.40;7.70;;;;;;;16.66;39.19;100323.75;5054232;28;20424;-88
2022/04/24 10:49:16;;;;;;;13.32;7.47;;;;;;;16.64;39.23;100317.72;5053818;28;20021;-86
2022/04/24 10:51:58;;;;;;;13.15;7.40;;;;;;;16.76;38.29;100332.00;5052750;28;20075;-87
2022/04/24 10:54:32;;;;;;;12.73;7.45;;;;;;;16.81;38.28;100323.91;5054521;28;20389;-84
2022/04/24 10:56:57;;;;;;;10.05;6.20;;;;;;;17.14;39.14;100323.16;5052894;28;20393;-84
2022/04/24 10:59:23;;;;;;;13.80;8.40;;;;;;;17.00;37.80;100320.38;5053392;28;20083;-83
2022/04/24 11:01:51;;;;;;;10.37;6.50;;;;;;;17.26;39.38;100313.81;5053241;28;20377;-83
2022/04/24 11:04:18;;;;;;;12.90;7.47;;;;;;;17.28;38.19;100322.44;5052907;28;20025;-83
2022/04/24 11:06:56;;;;;;;;;;;;;;;17.28;37.59;100317.19;5053879;28;20103;-82
2022/04/24 11:09:22;;;;;;;13.38;7.78;;;;;;;17.23;38.75;100312.19;5053065;28;19912;-81
2022/04/24 11:11:56;;;;;;;10.60;6.53;;;;;;;17.54;38.13;100323.69;5052885;28;20378;-83
2022/04/24 11:14:25;;;;;;;12.05;7.47;;;;;;;17.30;37.46;100328.47;5053671;28;20107;-82
2022/04/24 11:16:58;;;;;;;10.90;6.50;;;;;;;17.50;39.54;100314.31;5055372;28;20109;-84
2022/04/24 11:19:26;;;;;;;11.00;6.72;;;;;;;17.72;37.39;100323.66;5052789;28;20033;-83
2022/04/24 11:21:59;;;;;;;12.73;7.25;;;;;;;17.70;37.84;100321.09;5053452;28;20020;-81
2022/04/24 11:24:27;;;;;;;14.93;7.78;;;;;;;17.13;38.31;100314.44;5052728;28;20032;-83
2022/04/24 11:26:53;;;;;;;10.63;6.38;;;;;;;17.51;39.73;100334.34;5053088;28;20021;-82
2022/04/24 11:29:22;;;;;;;11.73;6.73;;;;;;;17.72;38.05;100337.63;5053340;28;20032;-83
2022/04/24 11:31:54;;;;;;;13.63;7.75;;;;;;;17.43;37.34;100326.91;5052744;28;20079;-82
2022/04/24 11:34:22;;;;;;;12.63;7.22;;;;;;;17.13;38.73;100322.31;5053458;28;20068;-83
2022/04/24 11:36:49;;;;;;;11.98;6.90;;;;;;;17.21;38.48;100321.06;5053044;28;20044;-84
2022/04/24 11:39:16;;;;;;;10.23;6.60;;;;;;;17.52;38.26;100319.47;5052490;28;20029;-84
2022/04/24 11:41:43;;;;;;;11.07;6.80;;;;;;;17.66;38.02;100329.22;5053022;28;20389;-82
2022/04/24 11:52:24;;;;;;;13.10;7.15;;;;;;;18.02;36.74;100329.03;5053872;28;20479;-84